Latest Coastal Weather Observations for Kingscote

IDS60701

Issued at 9:25 am CST Wednesday 3 September 2014 (issued every 10 minutes, with the page automatically refreshed every 10 minutes)

About coastal observations | Map of coastal stations | Coastal observations for SA | Marine services | Other Formats
Station Details ID: 022841 Name: KINGSCOTE AERO Lat: -35.71 Lon: 137.52 Height: 6.23 m
Data from the previous 72 hours. | See also: Recent months at Kingscote
Date/Time
CST
Temp

°C
Wind Pressure Rain
since 9am
mm
Weather Cloud Vis
km
Sea
Height
m
Swell
Dir
 
Speed
knots
Gust
knots
hPa Trend Height
m
Period
s
Dir
03/09:00am 8.0 CALM 0 0 1024.2 - 1.2 - Mostly clear 10 - - - -
03/08:30am 6.0 CALM 0 0 1024.5 - 1.2 - - 10 - - - -
03/08:00am 4.8 CALM 0 0 1024.9 - 1.2 - - 10 - - - -
03/07:30am 3.8 CALM 0 0 1024.9 - 1.2 - Partly cloudy 10 - - - -
03/07:00am 2.8 W 3 5 1025.2 - 1.2 - Partly cloudy 10 - - - -
03/06:30am 3.0 CALM 0 0 1024.9 - 1.2 - - 10 - - - -
03/06:00am 2.4 CALM 0 0 1024.8 - 1.2 - Cloudy 10 - - - -
03/05:30am 2.6 CALM 0 0 1024.6 - 1.2 - - 10 - - - -
03/05:00am 2.6 CALM 0 0 1024.9 - 1.2 - - 10 - - - -
03/04:30am 1.8 CALM 0 0 1024.8 - 1.2 - - 10 - - - -
03/04:00am 1.5 CALM 0 0 1024.5 - 1.2 - - 10 - - - -
03/03:30am 2.4 CALM 0 0 1024.3 - 1.2 - - 10 - - - -
03/03:00am 2.6 CALM 0 0 1024.7 - 1.2 - Mostly clear 10 - - - -
03/02:30am 2.8 CALM 0 0 1025.2 - 1.2 - - 10 - - - -
03/02:00am 2.6 CALM 0 0 1026.2 - 1.2 - - 10 - - - -
03/01:30am 2.9 CALM 0 0 1026.5 - 1.2 - - 10 - - - -
03/01:00am 3.0 CALM 0 0 1026.7 - 1.2 - - 10 - - - -
03/12:30am 3.1 CALM 0 0 1026.7 - 1.2 - - 10 - - - -
03/12:00am 3.1 WNW 0 0 1026.9 - 1.2 - - 10 - - - -
 
Date/Time
CST
Temp

°C
Wind Pressure Rain
since 9am
mm
Weather Cloud Vis
km
Sea
Height
m
Swell
Dir
 
Speed
knots
Gust
knots
hPa Trend Height
m
Period
s
Dir
02/11:30pm 3.6 CALM 0 0 1026.9 - 1.2 - - 10 - - - -
02/11:00pm 4.3 CALM 0 0 1027.3 - 1.2 - - 10 - - - -
02/10:30pm 4.4 CALM 0 0 1027.7 - 1.2 - - 10 - - - -
02/10:00pm 5.3 CALM 0 0 1027.7 - 1.2 - - 10 - - - -
02/09:30pm 5.7 CALM 0 0 1027.8 - 1.2 - - 10 - - - -
02/09:00pm 6.3 CALM 0 0 1027.8 - 1.2 - - 9 - - - -
02/08:30pm 6.8 W 3 4 1027.6 - 1.2 - Cloudy 10 - - - -
02/08:00pm 6.9 WSW 4 4 1027.8 - 1.2 - Partly cloudy 10 - - - -
02/07:30pm 8.2 CALM 0 0 1027.5 - 1.2 - Partly cloudy 10 - - - -
02/07:00pm 8.0 NNW 2 4 1027.3 - 1.2 - Partly cloudy 10 - - - -
02/06:30pm 9.1 SW 3 4 1027.1 - 1.2 - Partly cloudy 10 - - - -
02/06:00pm 10.2 SSE 6 8 1026.9 - 1.2 - Mostly clear 10 - - - -
02/05:30pm 11.1 SSE 8 11 1026.3 - 1.2 - Partly cloudy 10 - - - -
02/05:00pm 11.5 S 9 13 1026.4 - 1.2 - Partly cloudy 10 - - - -
02/04:30pm 11.7 SE 12 19 1026.4 - 1.2 - Partly cloudy 10 - - - -
02/04:00pm 12.3 SSE 13 18 1026.3 - 1.2 - Partly cloudy 10 - - - -
02/03:30pm 11.2 SSE 12 18 1026.2 - 1.2 - Partly cloudy 10 - - - -
02/03:22pm 11.4 SSE 15 18 1026.2 - 1.2 - Partly cloudy 10 - - - -
02/03:14pm 12.4 SE 5 8 1026.2 - 1.2 - Partly cloudy 10 - - - -
02/03:00pm 11.3 SSE 3 - 1026.3 - 1.0 Rain Cloudy 3 - - - -
02/02:51pm 11.8 S 14 16 1026.2 - 0.8 - Partly cloudy 5 - - - -
02/02:30pm 12.5 SE 11 15 1026.0 - 0.4 - Partly cloudy 10 - - - -
02/02:00pm 14.0 S 14 18 1025.8 - 0.4 - Partly cloudy 10 - - - -
02/01:30pm 12.2 S 9 14 1026.0 - 0.4 - Partly cloudy 9 - - - -
02/01:00pm 13.0 SE 10 14 1026.2 - 0.4 - Partly cloudy 10 - - - -
02/12:30pm 11.8 S 12 18 1026.2 - 0.4 - Partly cloudy 10 - - - -
02/12:00pm 12.2 S 13 17 1026.2 - 0.4 Recent precip. Mostly cloudy 10 - - - -
02/11:30am 11.6 S 14 21 1026.2 - 0.4 - Partly cloudy 7 - - - -
02/11:00am 13.1 S 13 16 1026.3 - 0.0 - Partly cloudy 10 - - - -
02/10:30am 12.2 S 17 23 1026.3 - 0.0 - Partly cloudy 10 - - - -
02/10:00am 14.0 S 16 19 1026.1 - 0.0 - Partly cloudy 10 - - - -
02/09:30am 13.2 S 13 17 1025.9 - 0.0 - - 10 - - - -
02/09:00am 11.9 SSW 7 8 1025.8 - 1.0 - - 10 - - - -
02/08:30am 10.5 CALM 0 0 1025.5 - 1.0 - - 10 - - - -
02/08:00am 7.8 CALM 0 0 1025.3 - 1.0 - Partly cloudy 10 - - - -
02/07:30am 5.7 W 5 6 1025.1 - 1.0 - - 10 - - - -
02/07:00am 4.6 WSW 5 7 1024.8 - 1.0 - - 10 - - - -
02/06:30am 5.2 WSW 5 6 1024.3 - 1.0 - Partly cloudy 10 - - - -
02/06:00am 5.3 WSW 6 6 1023.8 - 1.0 - Mostly clear 10 - - - -
02/05:30am 6.2 SW 7 8 1023.4 - 1.0 - Partly cloudy 10 - - - -
02/05:00am 5.4 WSW 8 9 1022.9 - 1.0 - - 10 - - - -
02/04:30am 5.6 WSW 7 7 1022.3 - 1.0 - - 10 - - - -
02/04:00am 6.0 WSW 7 8 1022.0 - 1.0 - - 10 - - - -
02/03:30am 6.5 W 6 7 1021.7 - 1.0 - - 10 - - - -
02/03:00am 7.5 WSW 7 8 1021.6 - 1.0 - Mostly cloudy 10 - - - -
02/02:30am 6.9 WSW 7 9 1021.5 - 1.0 - Partly cloudy 10 - - - -
02/02:00am 7.3 WSW 8 9 1021.2 - 1.0 - Partly cloudy 10 - - - -
02/01:30am 7.4 WSW 9 11 1021.1 - 1.0 - Partly cloudy 10 - - - -
02/01:00am 6.0 WSW 7 8 1021.0 - 1.0 - Partly cloudy 10 - - - -
02/12:30am 6.8 W 8 10 1020.7 - 1.0 - Partly cloudy 10 - - - -
02/12:00am 7.1 W 7 10 1020.7 - 1.0 Recent precip. Mostly cloudy 10 - - - -
 
Date/Time
CST
Temp

°C
Wind Pressure Rain
since 9am
mm
Weather Cloud Vis
km
Sea
Height
m
Swell
Dir
 
Speed
knots
Gust
knots
hPa Trend Height
m
Period
s
Dir
01/11:30pm 6.9 W 7 8 1020.5 - 1.0 - Partly cloudy 10 - - - -
01/11:00pm 7.1 W 9 11 1020.4 - 0.8 - Partly cloudy 10 - - - -
01/10:30pm 6.9 W 9 11 1020.2 - 0.8 - - 10 - - - -
01/10:00pm 6.8 W 8 10 1019.8 - 0.8 - Partly cloudy 10 - - - -
01/09:30pm 7.1 WSW 6 8 1019.5 - 0.8 - Partly cloudy 10 - - - -
01/09:00pm 8.3 SW 9 11 1019.2 - 0.8 Recent precip. Cloudy 10 - - - -
01/08:30pm 8.5 SSW 14 19 1018.9 - 0.6 - Partly cloudy 10 - - - -
01/08:15pm 8.6 SW 19 24 1018.9 - 0.4 - Partly cloudy 10 - - - -
01/08:00pm 8.2 SW 9 12 1018.5 - 0.4 - Partly cloudy 10 - - - -
01/07:39pm 9.1 SW 15 25 1018.3 - 0.4 - Partly cloudy 10 - - - -
01/07:30pm 8.6 SW 13 20 1018.1 - 0.4 - Partly cloudy 9 - - - -
01/07:00pm 8.8 SW 10 15 1017.4 - 0.4 - Partly cloudy 10 - - - -
01/06:30pm 8.2 SW 9 11 1017.0 - 0.4 - Partly cloudy 10 - - - -
01/06:00pm 8.9 WSW 13 17 1016.6 - 0.4 - Mostly cloudy 10 - - - -
01/05:46pm 9.3 WSW 20 30 1016.6 - 0.4 - Partly cloudy 10 - - - -
01/05:37pm 10.2 SW 23 30 1016.5 - 0.4 - Partly cloudy 10 - - - -
01/05:30pm 10.8 SW 11 16 1016.2 - 0.4 - Partly cloudy 10 - - - -
01/05:00pm 11.3 SW 15 24 1015.5 - 0.4 - Partly cloudy 10 - - - -
01/04:30pm 13.0 SW 13 15 1015.0 - 0.4 - Partly cloudy 10 - - - -
01/04:00pm 12.6 SW 15 21 1014.8 - 0.4 - Partly cloudy 10 - - - -
01/03:40pm 11.8 SW 15 25 1014.7 - 0.4 - Partly cloudy 10 - - - -
01/03:30pm 11.9 SW 11 15 1014.4 - 0.4 - Partly cloudy 10 - - - -
01/03:00pm 14.0 W 8 11 1014.0 - 0.0 - Cloudy 10 - - - -
01/02:30pm 14.3 SW 8 12 1014.0 - 0.0 - Partly cloudy 10 - - - -
01/02:00pm 11.6 SW 14 20 1014.3 - 0.0 - Partly cloudy 10 - - - -
01/01:50pm 11.4 SW 21 31 1014.3 - 0.0 - Partly cloudy 10 - - - -
01/01:43pm 12.7 SW 25 31 1014.1 - 0.0 - Partly cloudy 10 - - - -
01/01:30pm 14.6 SW 13 16 1013.8 - 0.0 - Partly cloudy 10 - - - -
01/01:00pm 15.0 SW 18 25 1014.1 - 0.0 - Partly cloudy 10 - - - -
01/12:53pm 15.6 SW 16 25 1014.1 - 0.0 - Partly cloudy 10 - - - -
01/12:30pm 14.7 SW 12 15 1014.0 - 0.0 - Partly cloudy 10 - - - -
01/12:00pm 14.1 WSW 13 18 1014.2 - 0.0 - Mostly clear 10 - - - -
01/11:30am 14.5 WSW 14 18 1014.2 - 0.0 - Partly cloudy 10 - - - -
01/11:00am 15.4 WSW 15 21 1014.1 - 0.0 - Partly cloudy 10 - - - -
01/10:30am 14.7 WSW 15 19 1014.1 - 0.0 - - 10 - - - -
01/10:00am 14.1 WSW 16 21 1014.0 - 0.0 - - 10 - - - -
01/09:30am 14.1 WSW 13 18 1014.0 - 0.0 - - 10 - - - -
01/09:00am 13.0 WSW 12 17 1013.9 - 1.6 - - 10 - - - -
01/08:30am 12.2 WSW 10 13 1013.7 - 1.6 - - 10 - - - -
01/08:00am 11.1 WSW 9 11 1013.3 - 1.6 - - 10 - - - -
01/07:30am 9.8 WSW 6 7 1013.0 - 1.6 - - 10 - - - -
01/07:00am 9.0 W 5 6 1012.8 - 1.6 - Partly cloudy 10 - - - -
01/06:30am 10.4 WSW 6 8 1012.5 - 1.6 - Partly cloudy 10 - - - -
01/06:00am 10.7 W 5 7 1012.1 - 1.6 - Cloudy 10 - - - -
01/05:30am 11.0 W 5 6 1011.9 - 1.6 - Partly cloudy 10 - - - -
01/05:00am 11.3 W 6 7 1011.4 - 1.6 - Cloudy 10 - - - -
01/04:30am 11.3 W 5 7 1011.2 - 1.6 - Partly cloudy 10 - - - -
01/04:00am 11.4 W 6 8 1011.0 - 1.6 - Partly cloudy 10 - - - -
01/03:30am 11.4 W 6 7 1010.9 - 1.6 - Partly cloudy 10 - - - -
01/03:00am 11.4 W 6 7 1011.0 - 1.6 - Mostly cloudy 10 - - - -
01/02:30am 11.4 W 4 5 1011.0 - 1.6 - Cloudy 10 - - - -
01/02:00am 11.5 W 4 5 1011.2 - 1.6 - Cloudy 10 - - - -
01/01:30am 11.7 WSW 5 6 1011.4 - 1.6 - Partly cloudy 10 - - - -
01/01:00am 11.8 WSW 5 5 1011.6 - 1.6 - Cloudy 10 - - - -
01/12:30am 11.9 W 5 7 1011.4 - 1.6 - Cloudy 10 - - - -
01/12:00am 12.1 W 7 9 1011.5 - 1.6 - Cloudy 10 - - - -
 
Date/Time
CST
Temp

°C
Wind Pressure Rain
since 9am
mm
Weather Cloud Vis
km
Sea
Height
m
Swell
Dir
 
Speed
knots
Gust
knots
hPa Trend Height
m
Period
s
Dir
31/11:30pm 12.1 W 7 8 1011.1 - 1.6 - Cloudy 10 - - - -
31/11:00pm 12.0 W 7 9 1011.0 - 1.6 - Cloudy 10 - - - -
31/10:30pm 11.9 WSW 5 7 1010.7 - 1.6 - Partly cloudy 10 - - - -
31/10:00pm 12.1 SW 5 7 1010.6 - 1.6 - Cloudy 10 - - - -
31/09:30pm 12.5 WSW 7 9 1010.8 - 1.4 - Partly cloudy 10 - - - -
31/09:00pm 12.7 WSW 9 12 1010.8 - 1.4 Rain Cloudy 10 - - - -
31/08:50pm 12.9 WSW 9 13 1010.8 - 1.2 - Partly cloudy 10 - - - -
31/08:30pm 13.3 WSW 10 12 1011.3 - 0.8 - Partly cloudy 6 - - - -
31/08:23pm 13.4 WSW 9 12 1011.2 - 0.8 - Partly cloudy 5 - - - -
31/08:00pm 13.7 WSW 9 12 1011.0 - 0.4 - Partly cloudy 8 - - - -
31/07:30pm 14.2 WNW 8 10 1011.0 - 0.2 - Partly cloudy 10 - - - -
31/07:00pm 14.2 W 7 9 1010.4 - 0.0 - Cloudy 10 - - - -
31/06:30pm 14.3 WNW 9 11 1010.3 - 0.0 - Cloudy 10 - - - -
31/06:00pm 15.2 WNW 11 15 1010.1 - 0.0 - Cloudy 10 - - - -
31/05:30pm 15.5 WNW 8 11 1009.6 - 0.0 - Cloudy 10 - - - -
31/05:00pm 16.1 NW 8 11 1009.7 - 0.0 - Partly cloudy 10 - - - -
31/04:30pm 16.6 NW 9 13 1009.3 - 0.0 - Cloudy 10 - - - -
31/04:00pm 17.1 NW 9 13 1009.1 - 0.0 - Partly cloudy 10 - - - -
31/03:30pm 17.4 NW 12 16 1009.7 - 0.0 - Cloudy 10 - - - -
31/03:00pm 17.6 NW 12 16 1010.0 - 0.0 - Mostly cloudy 10 - - - -
31/02:30pm 17.9 NW 14 19 1009.6 - 0.0 - - 10 - - - -
31/02:00pm 17.5 NNW 13 21 1009.5 - 0.0 - - 10 - - - -
31/01:30pm 17.4 NNW 11 20 1009.7 - 0.0 - Partly cloudy 10 - - - -
31/01:00pm 17.0 N 9 13 1010.0 - 0.0 - Partly cloudy 10 - - - -
31/12:30pm 17.4 NW 9 14 1011.5 - 0.0 - - 10 - - - -
31/12:00pm 17.3 NNW 8 14 1011.2 - 0.0 - Mostly cloudy 10 - - - -
31/11:30am 17.6 NNW 13 18 1012.2 - 0.0 - - 10 - - - -
31/11:00am 17.6 NNW 15 23 1012.8 - 0.0 - - 10 - - - -
31/10:30am 17.5 NNW 15 21 1012.7 - 0.0 - - 10 - - - -
31/10:00am 16.9 NNW 13 18 1013.0 - 0.0 - - 10 - - - -
31/09:30am 15.6 N 11 16 1013.2 - 0.0 - - 10 - - - -

Other Formats:

Comma delimited format used in spreadsheet applications
http://www.bom.gov.au/fwo/IDS60701/IDS60701.95807.axf

JavaScript Object Notation format (JSON) in row-major order
http://www.bom.gov.au/fwo/IDS60701/IDS60701.95807.json